Allen, Nebraska
Current Conditions -  °F | °C
As of 1:15 PM on Tuesday 21 Oct 2014 (Local Time) from KLCG Reporting Station
Clear Clear  
Wind Chill: 75°   Ceiling: Unl
Heat Index: 75°   Visibility: 10mi
Dew Point: 43°   Wind: 14mph
Humidity: 32%   Direction: 190°S
Pressure: 30.04"   Gusts: NA
Location:  42.42°N, 96.85°W
Report Text: KLCG 211815Z AUTO 19012KT 10SM CLR 24/06 A3004 RMK AO2 T02370062
Loading
Personal Weather Stations






























Interactive Weather Map
Tropical Storm Tracking
New forecast layout! Learn more

10-Day Weather Forecast

Advertisements
Track Severe Weather on mobile